sensor_id;sensor_type;location;lat;lon;timestamp;temperature;humidity
21518;DHT22;61765;45.794;24.150;2023-03-01T00:05:24;11.10;87.20
21518;DHT22;61765;45.794;24.150;2023-03-01T00:13:33;11.20;87.10
21518;DHT22;61765;45.794;24.150;2023-03-01T00:21:39;11.20;86.60
21518;DHT22;61765;45.794;24.150;2023-03-01T00:29:47;11.20;86.80
21518;DHT22;61765;45.794;24.150;2023-03-01T00:37:53;11.20;86.80
21518;DHT22;61765;45.794;24.150;2023-03-01T00:46:09;11.20;86.80
21518;DHT22;61765;45.794;24.150;2023-03-01T00:54:15;11.10;86.80
21518;DHT22;61765;45.794;24.150;2023-03-01T01:02:24;11.20;86.60
21518;DHT22;61765;45.794;24.150;2023-03-01T01:10:30;11.30;86.30
21518;DHT22;61765;45.794;24.150;2023-03-01T01:18:38;11.10;86.30
21518;DHT22;61765;45.794;24.150;2023-03-01T01:26:44;11.00;86.70
21518;DHT22;61765;45.794;24.150;2023-03-01T01:34:52;11.30;86.70
21518;DHT22;61765;45.794;24.150;2023-03-01T01:42:57;11.10;86.70
21518;DHT22;61765;45.794;24.150;2023-03-01T01:51:08;11.20;86.90
21518;DHT22;61765;45.794;24.150;2023-03-01T01:59:15;11.10;87.00
21518;DHT22;61765;45.794;24.150;2023-03-01T02:07:24;11.30;86.80
21518;DHT22;61765;45.794;24.150;2023-03-01T02:15:33;11.30;87.00
21518;DHT22;61765;45.794;24.150;2023-03-01T02:23:41;11.20;87.20
21518;DHT22;61765;45.794;24.150;2023-03-01T02:31:52;11.10;87.90
21518;DHT22;61765;45.794;24.150;2023-03-01T02:40:04;11.00;88.30
21518;DHT22;61765;45.794;24.150;2023-03-01T02:48:16;11.00;88.70
21518;DHT22;61765;45.794;24.150;2023-03-01T02:56:22;10.90;88.30
21518;DHT22;61765;45.794;24.150;2023-03-01T03:04:31;11.00;88.40
21518;DHT22;61765;45.794;24.150;2023-03-01T03:12:37;11.10;88.20
21518;DHT22;61765;45.794;24.150;2023-03-01T03:20:45;11.10;88.20
21518;DHT22;61765;45.794;24.150;2023-03-01T03:28:54;11.10;87.90
21518;DHT22;61765;45.794;24.150;2023-03-01T03:37:03;11.20;88.10
21518;DHT22;61765;45.794;24.150;2023-03-01T03:45:28;11.20;87.80
21518;DHT22;61765;45.794;24.150;2023-03-01T03:53:38;11.20;88.30
21518;DHT22;61765;45.794;24.150;2023-03-01T04:01:43;11.40;88.10
21518;DHT22;61765;45.794;24.150;2023-03-01T04:09:51;11.40;87.50
21518;DHT22;61765;45.794;24.150;2023-03-01T04:17:57;11.40;87.60
21518;DHT22;61765;45.794;24.150;2023-03-01T04:26:05;11.50;87.40
21518;DHT22;61765;45.794;24.150;2023-03-01T04:34:10;11.40;87.70
21518;DHT22;61765;45.794;24.150;2023-03-01T04:42:19;11.50;87.70
21518;DHT22;61765;45.794;24.150;2023-03-01T04:50:24;11.50;87.50
21518;DHT22;61765;45.794;24.150;2023-03-01T04:58:33;11.60;87.40
21518;DHT22;61765;45.794;24.150;2023-03-01T05:06:38;11.70;87.50
21518;DHT22;61765;45.794;24.150;2023-03-01T05:14:47;11.50;87.70
21518;DHT22;61765;45.794;24.150;2023-03-01T05:22:56;11.50;87.50
21518;DHT22;61765;45.794;24.150;2023-03-01T05:31:05;11.40;88.10
21518;DHT22;61765;45.794;24.150;2023-03-01T05:39:12;11.50;87.40
21518;DHT22;61765;45.794;24.150;2023-03-01T05:47:20;11.60;87.50
21518;DHT22;61765;45.794;24.150;2023-03-01T05:55:26;11.70;87.50
21518;DHT22;61765;45.794;24.150;2023-03-01T06:03:34;11.80;87.40
21518;DHT22;61765;45.794;24.150;2023-03-01T06:11:39;11.70;87.10
21518;DHT22;61765;45.794;24.150;2023-03-01T06:19:47;11.80;86.80
21518;DHT22;61765;45.794;24.150;2023-03-01T06:27:53;11.70;87.60
21518;DHT22;61765;45.794;24.150;2023-03-01T06:36:01;11.90;87.40
21518;DHT22;61765;45.794;24.150;2023-03-01T06:44:07;12.20;87.00
21518;DHT22;61765;45.794;24.150;2023-03-01T06:52:15;12.20;86.90
21518;DHT22;61765;45.794;24.150;2023-03-01T07:00:21;12.10;86.90
21518;DHT22;61765;45.794;24.150;2023-03-01T07:08:29;12.10;87.00
21518;DHT22;61765;45.794;24.150;2023-03-01T07:16:35;12.30;86.60
21518;DHT22;61765;45.794;24.150;2023-03-01T07:24:43;12.20;86.90
21518;DHT22;61765;45.794;24.150;2023-03-01T07:32:49;12.40;86.50
21518;DHT22;61765;45.794;24.150;2023-03-01T07:41:01;12.60;86.10
21518;DHT22;61765;45.794;24.150;2023-03-01T07:49:07;12.80;86.00
21518;DHT22;61765;45.794;24.150;2023-03-01T07:57:15;12.70;85.70
21518;DHT22;61765;45.794;24.150;2023-03-01T08:05:21;12.70;85.50
21518;DHT22;61765;45.794;24.150;2023-03-01T08:13:30;12.80;85.60
21518;DHT22;61765;45.794;24.150;2023-03-01T08:21:36;13.00;84.40
21518;DHT22;61765;45.794;24.150;2023-03-01T08:29:44;13.00;84.00
21518;DHT22;61765;45.794;24.150;2023-03-01T08:37:50;12.50;85.50
21518;DHT22;61765;45.794;24.150;2023-03-01T08:45:58;12.80;85.30
21518;DHT22;61765;45.794;24.150;2023-03-01T08:54:04;12.80;84.70
21518;DHT22;61765;45.794;24.150;2023-03-01T09:02:15;12.60;85.20
21518;DHT22;61765;45.794;24.150;2023-03-01T09:10:21;12.70;84.50
21518;DHT22;61765;45.794;24.150;2023-03-01T09:18:29;13.00;82.60
21518;DHT22;61765;45.794;24.150;2023-03-01T09:26:35;13.00;83.30
21518;DHT22;61765;45.794;24.150;2023-03-01T09:34:44;13.00;83.20
21518;DHT22;61765;45.794;24.150;2023-03-01T09:43:15;13.10;83.10
21518;DHT22;61765;45.794;24.150;2023-03-01T09:51:29;13.30;82.40
21518;DHT22;61765;45.794;24.150;2023-03-01T09:59:47;13.80;81.90
21518;DHT22;61765;45.794;24.150;2023-03-01T10:08:06;13.40;80.90
21518;DHT22;61765;45.794;24.150;2023-03-01T10:16:24;12.60;82.50
21518;DHT22;61765;45.794;24.150;2023-03-01T10:24:35;12.80;83.20
21518;DHT22;61765;45.794;24.150;2023-03-01T10:32:41;13.40;82.20
21518;DHT22;61765;45.794;24.150;2023-03-01T10:40:55;13.50;81.80
21518;DHT22;61765;45.794;24.150;2023-03-01T10:49:14;14.00;80.80
21518;DHT22;61765;45.794;24.150;2023-03-01T10:57:45;14.10;80.70
21518;DHT22;61765;45.794;24.150;2023-03-01T11:05:52;14.20;79.90
21518;DHT22;61765;45.794;24.150;2023-03-01T11:14:05;14.10;79.60
21518;DHT22;61765;45.794;24.150;2023-03-01T11:22:27;14.10;79.00
21518;DHT22;61765;45.794;24.150;2023-03-01T11:30:48;14.30;78.60
21518;DHT22;61765;45.794;24.150;2023-03-01T11:39:18;14.10;79.30
21518;DHT22;61765;45.794;24.150;2023-03-01T11:47:43;14.20;80.30
21518;DHT22;61765;45.794;24.150;2023-03-01T11:56:00;15.00;76.30
21518;DHT22;61765;45.794;24.150;2023-03-01T12:21:59;15.20;76.20
21518;DHT22;61765;45.794;24.150;2023-03-01T12:30:24;15.30;73.50
21518;DHT22;61765;45.794;24.150;2023-03-01T12:38:41;15.00;75.40
21518;DHT22;61765;45.794;24.150;2023-03-01T12:46:56;15.40;74.30
21518;DHT22;61765;45.794;24.150;2023-03-01T12:55:23;15.40;73.60
21518;DHT22;61765;45.794;24.150;2023-03-01T13:03:53;15.30;75.00
21518;DHT22;61765;45.794;24.150;2023-03-01T13:12:43;14.30;75.00
21518;DHT22;61765;45.794;24.150;2023-03-01T13:20:51;14.50;76.20
21518;DHT22;61765;45.794;24.150;2023-03-01T13:28:59;14.40;76.30
21518;DHT22;61765;45.794;24.150;2023-03-01T13:37:28;14.70;75.60
21518;DHT22;61765;45.794;24.150;2023-03-01T13:45:39;14.40;75.40
21518;DHT22;61765;45.794;24.150;2023-03-01T13:53:46;14.30;76.10
21518;DHT22;61765;45.794;24.150;2023-03-01T14:01:57;13.60;77.70
21518;DHT22;61765;45.794;24.150;2023-03-01T14:10:05;13.30;78.30
21518;DHT22;61765;45.794;24.150;2023-03-01T14:18:18;13.90;77.20
21518;DHT22;61765;45.794;24.150;2023-03-01T14:26:25;14.00;76.80
21518;DHT22;61765;45.794;24.150;2023-03-01T14:34:35;13.60;77.40
21518;DHT22;61765;45.794;24.150;2023-03-01T14:42:40;13.50;78.40
21518;DHT22;61765;45.794;24.150;2023-03-01T14:50:51;13.30;78.80
21518;DHT22;61765;45.794;24.150;2023-03-01T14:58:58;13.10;79.40
21518;DHT22;61765;45.794;24.150;2023-03-01T15:07:11;13.20;79.60
21518;DHT22;61765;45.794;24.150;2023-03-01T15:15:38;13.00;80.20
21518;DHT22;61765;45.794;24.150;2023-03-01T15:23:53;13.10;80.60
21518;DHT22;61765;45.794;24.150;2023-03-01T15:32:01;13.40;79.40
21518;DHT22;61765;45.794;24.150;2023-03-01T15:40:24;12.90;79.90
21518;DHT22;61765;45.794;24.150;2023-03-01T15:48:33;12.70;80.70
21518;DHT22;61765;45.794;24.150;2023-03-01T15:56:41;12.80;80.10
21518;DHT22;61765;45.794;24.150;2023-03-01T16:04:48;12.60;80.90
21518;DHT22;61765;45.794;24.150;2023-03-01T16:12:56;12.80;81.00
21518;DHT22;61765;45.794;24.150;2023-03-01T16:21:04;13.10;79.80
21518;DHT22;61765;45.794;24.150;2023-03-01T16:29:14;13.40;79.30
21518;DHT22;61765;45.794;24.150;2023-03-01T16:37:22;13.70;78.10
21518;DHT22;61765;45.794;24.150;2023-03-01T16:45:34;13.10;79.10
21518;DHT22;61765;45.794;24.150;2023-03-01T16:53:43;13.40;79.20
21518;DHT22;61765;45.794;24.150;2023-03-01T17:01:52;13.10;79.80
21518;DHT22;61765;45.794;24.150;2023-03-01T17:09:57;13.20;79.50
21518;DHT22;61765;45.794;24.150;2023-03-01T17:18:06;13.00;79.90
21518;DHT22;61765;45.794;24.150;2023-03-01T17:26:14;12.90;80.40
21518;DHT22;61765;45.794;24.150;2023-03-01T17:34:22;12.40;81.40
21518;DHT22;61765;45.794;24.150;2023-03-01T17:42:28;12.70;81.10
21518;DHT22;61765;45.794;24.150;2023-03-01T17:50:37;13.30;79.70
21518;DHT22;61765;45.794;24.150;2023-03-01T17:58:43;13.30;79.90
21518;DHT22;61765;45.794;24.150;2023-03-01T18:06:51;13.20;79.00
21518;DHT22;61765;45.794;24.150;2023-03-01T18:14:57;13.20;79.50
21518;DHT22;61765;45.794;24.150;2023-03-01T18:23:06;12.90;80.60
21518;DHT22;61765;45.794;24.150;2023-03-01T18:31:12;12.70;81.30
21518;DHT22;61765;45.794;24.150;2023-03-01T18:39:23;12.80;81.10
21518;DHT22;61765;45.794;24.150;2023-03-01T18:47:28;12.30;81.80
21518;DHT22;61765;45.794;24.150;2023-03-01T18:55:38;12.40;83.00
21518;DHT22;61765;45.794;24.150;2023-03-01T19:03:44;12.50;82.50
21518;DHT22;61765;45.794;24.150;2023-03-01T19:11:53;12.30;83.00
21518;DHT22;61765;45.794;24.150;2023-03-01T19:20:06;12.20;83.40
21518;DHT22;61765;45.794;24.150;2023-03-01T19:28:16;11.90;84.40
21518;DHT22;61765;45.794;24.150;2023-03-01T19:36:22;12.40;83.00
21518;DHT22;61765;45.794;24.150;2023-03-01T19:44:39;12.60;82.60
21518;DHT22;61765;45.794;24.150;2023-03-01T19:52:46;12.20;83.10
21518;DHT22;61765;45.794;24.150;2023-03-01T20:00:54;12.10;83.50
21518;DHT22;61765;45.794;24.150;2023-03-01T20:09:04;12.10;84.40
21518;DHT22;61765;45.794;24.150;2023-03-01T20:17:26;12.20;83.60
21518;DHT22;61765;45.794;24.150;2023-03-01T20:25:35;12.30;83.90
21518;DHT22;61765;45.794;24.150;2023-03-01T20:33:43;12.40;83.30
21518;DHT22;61765;45.794;24.150;2023-03-01T20:41:49;12.30;84.10
21518;DHT22;61765;45.794;24.150;2023-03-01T20:49:57;12.20;84.00
21518;DHT22;61765;45.794;24.150;2023-03-01T20:58:04;12.50;83.60
21518;DHT22;61765;45.794;24.150;2023-03-01T21:06:12;12.40;82.70
21518;DHT22;61765;45.794;24.150;2023-03-01T21:14:18;12.60;83.30
21518;DHT22;61765;45.794;24.150;2023-03-01T21:22:27;12.80;82.00
21518;DHT22;61765;45.794;24.150;2023-03-01T21:30:37;12.80;82.40
21518;DHT22;61765;45.794;24.150;2023-03-01T21:38:47;11.90;85.00
21518;DHT22;61765;45.794;24.150;2023-03-01T21:46:54;11.70;85.20
21518;DHT22;61765;45.794;24.150;2023-03-01T21:55:03;11.40;86.90
21518;DHT22;61765;45.794;24.150;2023-03-01T22:03:08;12.00;85.00
21518;DHT22;61765;45.794;24.150;2023-03-01T22:11:17;12.20;84.40
21518;DHT22;61765;45.794;24.150;2023-03-01T22:19:23;12.20;84.60
21518;DHT22;61765;45.794;24.150;2023-03-01T22:27:32;12.40;84.00
21518;DHT22;61765;45.794;24.150;2023-03-01T22:35:40;12.60;83.60
21518;DHT22;61765;45.794;24.150;2023-03-01T22:43:49;12.60;83.00
21518;DHT22;61765;45.794;24.150;2023-03-01T22:51:54;12.40;83.40
21518;DHT22;61765;45.794;24.150;2023-03-01T23:00:07;12.60;84.00
21518;DHT22;61765;45.794;24.150;2023-03-01T23:08:14;12.50;83.40
21518;DHT22;61765;45.794;24.150;2023-03-01T23:16:23;12.50;83.60
21518;DHT22;61765;45.794;24.150;2023-03-01T23:24:29;12.50;83.20
21518;DHT22;61765;45.794;24.150;2023-03-01T23:32:38;12.20;84.00
21518;DHT22;61765;45.794;24.150;2023-03-01T23:40:43;12.10;84.00
21518;DHT22;61765;45.794;24.150;2023-03-01T23:48:52;12.10;83.80
21518;DHT22;61765;45.794;24.150;2023-03-01T23:56:58;11.90;83.90
